Time;durP1;ratioP1;P1;durP2;ratioP2;P2;SDS_P1;SDS_P2;PMS_P1;PMS_P2;Temp;Humidity;BMP_temperature;BMP_pressure;BME280_temperature;BME280_humidity;BME280_pressure;Samples;Min_cycle;Max_cycle;Signal;HPM_P1;HPM_P2
2022/02/11 00:00:53;;;;;;;21.85;3.85;;;8.30;93.60;;;;;;5067873;28;20438;-70
2022/02/11 00:06:21;;;;;;;19.67;3.65;;;8.20;93.90;;;;;;5068598;28;20423;-68
2022/02/11 00:08:43;;;;;;;20.73;3.53;;;8.20;94.20;;;;;;5066916;28;20434;-70
2022/02/11 00:11:09;;;;;;;18.08;3.88;;;8.20;94.40;;;;;;5069515;28;20407;-70
2022/02/11 00:13:34;;;;;;;21.48;3.70;;;8.20;94.50;;;;;;5066346;28;20484;-69
2022/02/11 00:16:00;;;;;;;22.77;3.50;;;8.20;94.70;;;;;;5051010;28;20453;-69
2022/02/11 00:18:26;;;;;;;20.85;3.78;;;8.20;94.90;;;;;;5067323;28;20437;-69
2022/02/11 00:20:52;;;;;;;21.98;3.83;;;8.20;95.10;;;;;;5068472;28;20873;-69
2022/02/11 00:23:19;;;;;;;20.92;4.13;;;8.20;95.20;;;;;;5068621;28;20450;-70
2022/02/11 00:25:52;;;;;;;23.10;3.90;;;8.20;95.40;;;;;;5068781;28;20419;-70
2022/02/11 00:33:52;;;;;;;23.80;3.80;;;8.20;95.80;;;;;;5049690;28;20418;-69
2022/02/11 00:36:21;;;;;;;23.60;3.83;;;8.20;96.10;;;;;;5067624;28;20434;-68
2022/02/11 01:03:23;;;;;;;19.70;3.65;;;8.00;99.90;;;;;;5065431;28;20879;-69
2022/02/11 01:05:49;;;;;;;17.88;2.85;;;7.90;99.90;;;;;;5067828;28;20422;-70
2022/02/11 01:08:14;;;;;;;22.45;2.75;;;7.90;99.90;;;;;;5066545;28;20408;-70
2022/02/11 01:10:40;;;;;;;23.50;3.27;;;7.90;99.90;;;;;;5048936;28;20395;-69
2022/02/11 01:13:06;;;;;;;19.73;2.70;;;7.80;99.90;;;;;;5064764;28;20410;-69
2022/02/11 01:15:35;;;;;;;17.30;2.80;;;7.80;99.90;;;;;;5063148;28;20407;-69
2022/02/11 01:18:05;;;;;;;19.85;3.13;;;7.80;99.90;;;;;;5064016;28;20435;-69
2022/02/11 01:20:49;;;;;;;24.20;3.42;;;7.80;99.90;;;;;;5067894;28;20399;-69
2022/02/11 01:26:21;;;;;;;22.90;3.80;;;7.90;99.90;;;;;;5067247;28;20904;-70
2022/02/11 01:31:45;;;;;;;18.10;3.22;;;8.00;99.90;;;;;;5067042;28;20416;-70
2022/02/11 01:39:54;;;;;;;20.65;3.45;;;8.00;99.90;;;;;;5066413;28;20432;-69
2022/02/11 01:58:51;;;;;;;24.60;4.00;;;8.10;99.90;;;;;;5066123;28;20439;-69
2022/02/11 02:08:57;;;;;;;32.75;3.97;;;8.10;99.90;;;;;;5065662;28;20403;-69
2022/02/11 02:18:22;;;;;;;29.75;4.53;;;8.20;99.90;;;;;;5066182;28;20403;-68
2022/02/11 02:28:49;;;;;;;21.63;3.47;;;8.30;99.90;;;;;;5065368;28;20407;-69
2022/02/11 02:32:05;;;;;;;31.03;4.67;;;8.20;99.90;;;;;;5066956;28;20419;-69
2022/02/11 02:39:13;;;;;;;35.80;5.00;;;8.10;99.90;;;;;;5062691;28;20411;-70
2022/02/11 02:57:59;;;;;;;32.17;4.40;;;8.20;99.90;;;;;;5066492;28;20495;-70
2022/02/11 03:00:56;;;;;;;28.70;4.88;;;8.20;99.90;;;;;;5067521;28;20415;-71
2022/02/11 03:14:43;;;;;;;29.33;4.55;;;8.10;99.30;;;;;;5066981;28;20896;-68
2022/02/11 03:50:30;;;;;;;35.47;5.82;;;8.00;99.90;;;;;;5069916;28;21074;-69
2022/02/11 03:58:36;;;;;;;30.15;4.45;;;8.10;99.50;;;;;;5068624;28;20419;-68
2022/02/11 04:08:27;;;;;;;30.80;5.15;;;8.10;99.40;;;;;;5067908;28;20416;-68
2022/02/11 04:55:19;;;;;;;23.33;3.60;;;7.70;99.30;;;;;;5066100;28;20468;-70
2022/02/11 05:00:29;;;;;;;32.58;4.45;;;7.70;99.00;;;;;;5067403;28;20469;-69
2022/02/11 05:02:57;;;;;;;29.37;4.30;;;7.70;98.80;;;;;;5067207;28;20404;-68
2022/02/11 05:05:23;;;;;;;21.13;3.67;;;7.70;98.80;;;;;;5067167;28;20395;-69
2022/02/11 05:07:49;;;;;;;14.70;2.70;;;7.70;99.00;;;;;;5066041;28;20973;-68
2022/02/11 05:10:15;;;;;;;18.27;3.10;;;7.70;99.10;;;;;;5067690;28;20458;-69
2022/02/11 05:12:42;;;;;;;20.92;2.65;;;7.60;99.30;;;;;;5066911;28;20423;-70
2022/02/11 05:15:09;;;;;;;24.95;3.45;;;7.60;99.60;;;;;;5065719;28;20795;-68
2022/02/11 05:17:39;;;;;;;18.17;2.85;;;7.60;99.60;;;;;;5065267;28;20425;-70
2022/02/11 05:20:07;;;;;;;18.55;3.05;;;7.60;99.80;;;;;;5063105;28;20415;-69
2022/02/11 05:22:33;;;;;;;19.40;2.67;;;7.70;99.70;;;;;;5064901;28;20500;-68
2022/02/11 05:24:59;;;;;;;21.52;3.42;;;7.60;99.50;;;;;;5066180;28;20415;-68
2022/02/11 05:27:25;;;;;;;22.35;3.10;;;7.60;99.50;;;;;;5064254;28;22446;-69
2022/02/11 05:29:51;;;;;;;25.45;3.60;;;7.50;99.80;;;;;;5067078;28;20472;-67
2022/02/11 05:32:17;;;;;;;22.55;3.47;;;7.50;99.90;;;;;;5066302;28;20415;-68
2022/02/11 05:34:43;;;;;;;28.43;4.40;;;7.40;99.90;;;;;;5066631;28;20411;-68
2022/02/11 05:37:08;;;;;;;26.40;4.28;;;7.40;99.90;;;;;;5066164;28;20411;-70
2022/02/11 05:39:34;;;;;;;23.87;4.10;;;7.40;99.90;;;;;;5066882;28;20416;-69
2022/02/11 05:41:59;;;;;;;25.40;4.05;;;7.40;99.90;;;;;;5067289;28;20489;-69
2022/02/11 05:44:25;;;;;;;20.80;3.50;;;7.40;99.70;;;;;;5066744;28;20745;-68
2022/02/11 05:46:51;;;;;;;19.77;3.30;;;7.30;99.20;;;;;;5049664;28;20435;-69
2022/02/11 05:49:17;;;;;;;22.52;2.92;;;7.30;98.50;;;;;;5066507;28;20407;-70
2022/02/11 05:51:43;;;;;;;22.63;3.40;;;7.30;98.40;;;;;;5065804;28;20415;-70
2022/02/11 05:54:09;;;;;;;22.98;4.25;;;7.30;98.50;;;;;;5067228;28;20419;-69
2022/02/11 05:56:35;;;;;;;31.35;3.95;;;7.30;98.50;;;;;;5065972;28;20999;-69
2022/02/11 05:59:01;;;;;;;26.00;3.97;;;7.40;99.00;;;;;;5064724;28;20419;-67
2022/02/11 06:01:26;;;;;;;29.73;4.20;;;7.40;99.10;;;;;;5066525;28;20453;-69
2022/02/11 06:03:52;;;;;;;19.00;3.50;;;7.40;99.30;;;;;;5066383;28;20994;-67
2022/02/11 06:06:18;;;;;;;28.03;3.93;;;7.40;99.10;;;;;;5067104;28;20464;-70
2022/02/11 06:08:43;;;;;;;25.65;3.50;;;7.40;99.00;;;;;;5065251;28;20753;-68
2022/02/11 06:11:09;;;;;;;27.58;3.63;;;7.40;99.10;;;;;;5047909;28;20411;-68
2022/02/11 06:13:35;;;;;;;34.13;4.37;;;7.40;99.10;;;;;;5064646;28;20950;-70
2022/02/11 06:16:01;;;;;;;24.83;3.80;;;7.40;98.90;;;;;;5066051;28;20419;-68
2022/02/11 06:18:27;;;;;;;23.88;3.95;;;7.50;98.80;;;;;;5064638;28;20460;-68
2022/02/11 06:20:53;;;;;;;17.60;2.88;;;7.50;98.70;;;;;;5065369;28;20986;-69
2022/02/11 06:23:18;;;;;;;16.95;2.78;;;7.40;99.10;;;;;;5064735;28;20506;-68
2022/02/11 06:25:44;;;;;;;18.40;2.67;;;7.20;99.80;;;;;;5063970;28;20407;-68
2022/02/11 06:28:11;;;;;;;16.33;2.75;;;7.20;99.90;;;;;;5064602;28;20423;-70
2022/02/11 06:30:38;;;;;;;17.77;2.20;;;7.10;99.90;;;;;;5068639;28;20438;-69
2022/02/11 06:33:03;;;;;;;16.20;2.80;;;7.10;99.90;;;;;;5067406;28;20426;-70
2022/02/11 06:35:34;;;;;;;23.77;3.30;;;7.10;99.90;;;;;;5068641;28;20415;-69
2022/02/11 06:38:00;;;;;;;23.60;3.20;;;7.00;99.90;;;;;;5066793;28;20416;-69
2022/02/11 06:40:29;;;;;;;23.48;3.60;;;7.00;99.90;;;;;;5067537;28;20419;-69
2022/02/11 06:42:56;;;;;;;20.93;2.90;;;7.00;99.90;;;;;;5067584;28;20868;-69
2022/02/11 06:45:22;;;;;;;23.02;2.85;;;6.90;99.90;;;;;;5068067;28;20473;-69
2022/02/11 06:47:48;;;;;;;23.10;3.10;;;6.90;99.90;;;;;;5067069;28;20415;-69
2022/02/11 06:50:14;;;;;;;25.07;3.60;;;6.90;99.90;;;;;;5068774;28;20423;-69
2022/02/11 06:52:39;;;;;;;21.70;3.42;;;6.90;99.90;;;;;;5067424;28;20446;-70
2022/02/11 06:55:06;;;;;;;23.87;3.37;;;6.90;99.90;;;;;;5063322;28;20454;-70
2022/02/11 06:57:32;;;;;;;18.60;3.22;;;6.90;99.90;;;;;;5066133;28;20748;-69
2022/02/11 06:59:59;;;;;;;28.93;3.93;;;6.90;99.90;;;;;;5068587;28;20396;-68
2022/02/11 07:02:28;;;;;;;27.48;4.13;;;6.90;99.90;;;;;;5066040;28;20445;-70
2022/02/11 07:04:54;;;;;;;23.55;3.78;;;6.90;99.90;;;;;;5067578;28;20406;-68
2022/02/11 07:07:20;;;;;;;21.73;3.53;;;6.90;99.90;;;;;;5066217;28;20442;-67
2022/02/11 07:09:45;;;;;;;25.45;3.10;;;6.90;99.90;;;;;;5066933;28;20872;-69
2022/02/11 07:12:11;;;;;;;23.53;3.37;;;6.90;99.90;;;;;;5064784;28;20421;-69
2022/02/11 07:14:37;;;;;;;21.58;3.58;;;6.90;99.90;;;;;;5049041;28;20403;-69
2022/02/11 07:17:04;;;;;;;25.65;4.20;;;6.90;99.90;;;;;;5065887;28;20438;-71
2022/02/11 07:19:30;;;;;;;23.02;3.60;;;6.80;99.90;;;;;;5067586;28;20787;-71
2022/02/11 07:22:00;;;;;;;24.10;3.83;;;6.80;99.90;;;;;;5064860;28;20415;-71
2022/02/11 07:24:27;;;;;;;28.95;3.85;;;6.90;99.90;;;;;;5066440;28;20415;-71
2022/02/11 07:26:54;;;;;;;29.97;3.97;;;6.90;99.90;;;;;;5049065;28;20407;-71
2022/02/11 07:29:19;;;;;;;32.73;4.57;;;6.80;99.90;;;;;;5066485;28;20415;-69
2022/02/11 07:31:45;;;;;;;32.70;4.55;;;6.80;99.90;;;;;;5049002;28;20982;-69
2022/02/11 07:34:10;;;;;;;26.87;4.70;;;6.80;99.90;;;;;;5065953;28;20404;-68
2022/02/11 07:36:36;;;;;;;36.50;5.50;;;6.90;99.90;;;;;;5068482;28;20510;-69
2022/02/11 07:39:03;;;;;;;45.97;5.27;;;6.90;99.90;;;;;;5064154;28;20465;-70
2022/02/11 07:41:29;;;;;;;34.55;4.95;;;7.00;99.90;;;;;;5049486;28;20414;-66
2022/02/11 07:43:54;;;;;;;31.75;4.45;;;7.00;99.90;;;;;;5049225;28;20530;-70
2022/02/11 07:46:20;;;;;;;30.70;4.33;;;7.00;99.90;;;;;;5066555;28;20423;-69
2022/02/11 07:48:45;;;;;;;26.10;4.60;;;7.10;99.90;;;;;;5067598;28;20563;-71
2022/02/11 07:51:11;;;;;;;28.35;4.28;;;7.20;99.70;;;;;;5050319;28;20498;-67
2022/02/11 07:53:38;;;;;;;25.90;4.77;;;7.30;99.00;;;;;;5049785;28;20414;-69
2022/02/11 07:56:04;;;;;;;28.00;4.10;;;7.40;98.60;;;;;;5068133;28;20450;-70
2022/02/11 07:58:30;;;;;;;27.73;4.40;;;7.40;98.60;;;;;;5067194;28;20419;-68
2022/02/11 08:00:57;;;;;;;26.95;4.25;;;7.50;98.20;;;;;;5068083;28;20421;-69
2022/02/11 08:03:23;;;;;;;23.40;4.13;;;7.50;98.00;;;;;;5067449;28;20424;-68
2022/02/11 08:05:49;;;;;;;27.87;4.23;;;7.50;97.70;;;;;;5067928;28;20730;-71
2022/02/11 08:08:16;;;;;;;30.55;4.00;;;7.60;97.00;;;;;;5066373;28;20414;-70
2022/02/11 08:10:41;;;;;;;21.02;3.30;;;7.60;96.70;;;;;;5063402;28;20446;-70
2022/02/11 08:13:07;;;;;;;22.23;3.50;;;7.70;96.00;;;;;;5063014;28;20446;-68
2022/02/11 08:15:33;;;;;;;19.77;3.60;;;7.80;95.80;;;;;;5080731;28;20407;-67
2022/02/11 08:17:58;;;;;;;16.70;3.60;;;7.90;95.30;;;;;;5064324;28;20925;-68
2022/02/11 08:20:24;;;;;;;27.33;4.05;;;8.00;94.40;;;;;;5048349;28;20407;-68
2022/02/11 08:22:51;;;;;;;23.58;3.97;;;8.10;94.00;;;;;;5062355;28;20417;-68
2022/02/11 08:25:17;;;;;;;25.75;4.20;;;8.30;93.70;;;;;;5060643;28;20412;-70
2022/02/11 08:27:44;;;;;;;24.45;3.90;;;8.60;93.10;;;;;;5048794;28;20418;-69
2022/02/11 08:30:11;;;;;;;24.80;3.80;;;8.80;92.00;;;;;;5066369;28;20415;-67
2022/02/11 08:32:37;;;;;;;22.90;3.53;;;8.90;91.60;;;;;;5063699;28;20427;-68
2022/02/11 08:35:03;;;;;;;26.07;3.70;;;9.10;92.00;;;;;;5068709;28;20403;-68
2022/02/11 08:37:29;;;;;;;23.10;3.63;;;9.30;91.20;;;;;;5066132;28;20415;-66
2022/02/11 08:39:55;;;;;;;22.83;3.47;;;9.60;90.90;;;;;;5067068;28;20411;-69
2022/02/11 08:42:20;;;;;;;28.70;4.00;;;9.80;88.40;;;;;;5065628;28;23139;-69
2022/02/11 08:44:46;;;;;;;19.67;3.70;;;9.80;87.60;;;;;;5067959;28;20403;-68
2022/02/11 08:47:12;;;;;;;24.80;3.53;;;9.70;86.80;;;;;;5066615;28;20427;-69
2022/02/11 08:49:39;;;;;;;22.53;3.33;;;9.60;86.40;;;;;;5067458;28;20407;-68
2022/02/11 08:52:06;;;;;;;17.77;3.08;;;9.60;85.60;;;;;;5048927;28;20411;-69
2022/02/11 08:54:31;;;;;;;17.03;3.07;;;9.70;83.80;;;;;;5067525;28;20786;-69
2022/02/11 08:56:57;;;;;;;23.25;3.17;;;9.60;82.60;;;;;;5066515;28;20399;-70
2022/02/11 08:59:23;;;;;;;20.37;3.10;;;9.80;81.30;;;;;;5067237;28;20435;-69
2022/02/11 09:01:49;;;;;;;14.85;2.60;;;10.20;79.80;;;;;;5050043;28;20768;-69
2022/02/11 09:04:15;;;;;;;21.20;2.93;;;10.60;76.80;;;;;;5067004;28;20406;-70
2022/02/11 09:06:43;;;;;;;15.70;2.72;;;11.50;75.20;;;;;;5050849;28;20403;-70
2022/02/11 09:09:09;;;;;;;15.05;3.10;;;13.20;70.20;;;;;;5048190;28;20435;-70
2022/02/11 09:11:36;;;;;;;12.88;2.80;;;15.00;60.70;;;;;;5066469;28;20410;-69
2022/02/11 09:14:02;;;;;;;13.38;2.60;;;16.70;53.60;;;;;;5066885;28;20427;-69
2022/02/11 09:16:30;;;;;;;16.77;2.83;;;18.10;49.40;;;;;;5050642;28;20841;-69
2022/02/11 09:18:56;;;;;;;10.45;2.53;;;19.40;46.40;;;;;;5067891;28;20495;-69
2022/02/11 09:21:21;;;;;;;11.10;2.63;;;20.50;42.00;;;;;;5064758;28;21031;-70
2022/02/11 09:23:47;;;;;;;11.25;2.55;;;21.10;39.50;;;;;;5066320;28;20437;-70
2022/02/11 09:26:14;;;;;;;11.48;2.65;;;21.60;38.30;;;;;;5067324;28;20415;-66
2022/02/11 09:28:40;;;;;;;14.32;3.05;;;22.10;38.40;;;;;;5066766;28;20921;-69
2022/02/11 09:31:06;;;;;;;17.75;3.55;;;22.00;37.80;;;;;;5067095;28;20407;-68
2022/02/11 09:33:32;;;;;;;17.93;3.40;;;21.10;39.00;;;;;;5065930;28;21112;-68
2022/02/11 09:35:57;;;;;;;18.63;3.38;;;19.60;42.70;;;;;;5065699;28;20909;-68
2022/02/11 09:38:23;;;;;;;20.73;3.67;;;18.00;46.30;;;;;;5048745;28;20919;-69
2022/02/11 09:40:50;;;;;;;17.40;2.93;;;16.60;49.20;;;;;;5068025;28;20408;-68
2022/02/11 09:43:17;;;;;;;18.58;3.50;;;15.50;52.90;;;;;;5066442;28;20423;-67
2022/02/11 09:45:44;;;;;;;18.95;3.00;;;14.50;56.80;;;;;;5066885;28;20415;-69
2022/02/11 09:48:11;;;;;;;19.92;3.20;;;13.80;57.70;;;;;;5066513;28;20423;-66
2022/02/11 09:50:37;;;;;;;24.00;4.40;;;13.20;59.30;;;;;;5066915;28;20768;-69
2022/02/11 09:53:02;;;;;;;18.65;3.60;;;12.80;60.30;;;;;;5066299;28;20415;-71
2022/02/11 09:55:31;;;;;;;21.27;3.67;;;12.70;63.00;;;;;;5049120;28;20900;-70
2022/02/11 09:57:58;;;;;;;16.73;2.97;;;13.80;61.70;;;;;;5081374;28;20802;-68
2022/02/11 10:00:26;;;;;;;14.55;2.97;;;15.50;55.20;;;;;;5065314;28;20689;-70
2022/02/11 10:02:55;;;;;;;12.30;2.60;;;17.20;49.90;;;;;;5067933;28;20419;-69
2022/02/11 10:05:32;;;;;;;10.87;2.50;;;18.50;45.90;;;;;;5070544;28;20403;-70
2022/02/11 10:07:58;;;;;;;12.93;2.15;;;19.20;42.20;;;;;;5070009;28;20570;-70
2022/02/11 10:13:20;;;;;;;9.75;2.05;;;19.90;39.50;;;;;;5069748;28;20506;-70
2022/02/11 10:15:55;;;;;;;11.23;2.30;;;20.80;37.20;;;;;;5070748;28;20422;-69
2022/02/11 10:18:26;;;;;;;10.60;2.60;;;21.50;34.60;;;;;;5069852;28;20477;-70
2022/02/11 10:21:00;;;;;;;14.35;2.40;;;22.10;34.30;;;;;;5071210;28;20399;-70
2022/02/11 10:23:36;;;;;;;8.53;2.20;;;22.60;33.00;;;;;;5084881;28;20412;-69
2022/02/11 10:26:07;;;;;;;9.25;1.98;;;23.00;32.30;;;;;;5070855;28;20438;-70
2022/02/11 10:28:41;;;;;;;9.30;1.97;;;23.50;31.40;;;;;;5069821;28;20816;-68
2022/02/11 10:31:15;;;;;;;;;;;23.90;30.10;;;;;;5070970;28;20075;-68
2022/02/11 10:34:00;;;;;;;;;;;22.80;34.60;;;;;;5071625;28;19916;-69
2022/02/11 10:36:27;;;;;;;8.95;1.55;;;21.80;38.10;;;;;;5070351;28;20730;-68
2022/02/11 10:39:05;;;;;;;12.02;1.90;;;21.60;40.00;;;;;;5069432;28;20941;-68
2022/02/11 10:41:32;;;;;;;12.00;2.35;;;21.60;39.60;;;;;;5070717;28;20190;-68
2022/02/11 10:44:18;;;;;;;9.98;2.20;;;21.70;39.60;;;;;;5071279;28;20365;-67
2022/02/11 10:46:49;;;;;;;10.98;2.05;;;21.50;39.50;;;;;;5072337;28;20183;-68
2022/02/11 10:49:16;;;;;;;11.07;2.10;;;21.50;39.60;;;;;;5070521;28;20233;-69
2022/02/11 10:51:47;;;;;;;12.98;2.10;;;21.50;39.90;;;;;;5072461;28;20592;-69
2022/02/11 10:54:26;;;;;;;6.15;1.88;;;21.60;38.80;;;;;;5070817;28;20280;-68
2022/02/11 10:56:54;;;;;;;8.95;1.90;;;21.70;38.60;;;;;;5071923;28;20205;-68
2022/02/11 10:59:30;;;;;;;7.50;1.80;;;21.70;38.10;;;;;;5069089;28;20190;-68
2022/02/11 11:01:58;;;;;;;10.32;1.83;;;21.60;37.20;;;;;;5068474;28;20936;-69
2022/02/11 11:04:26;;;;;;;12.35;2.15;;;21.50;37.10;;;;;;5071125;28;20201;-68
2022/02/11 11:06:53;;;;;;;10.65;1.90;;;21.20;36.60;;;;;;5070531;28;20578;-67
2022/02/11 11:09:20;;;;;;;9.80;2.10;;;20.70;36.80;;;;;;5069540;28;20808;-69
2022/02/11 11:11:46;;;;;;;13.07;2.20;;;22.40;31.50;;;;;;5052819;28;20435;-68
2022/02/11 11:14:16;;;;;;;11.85;2.20;;;23.20;29.90;;;;;;5066547;28;20506;-68
2022/02/11 11:16:44;;;;;;;9.48;2.15;;;23.70;29.20;;;;;;5069057;28;20411;-68
2022/02/11 11:19:10;;;;;;;11.70;2.65;;;24.10;29.50;;;;;;5069703;28;20403;-69
2022/02/11 11:21:43;;;;;;;9.73;1.90;;;24.50;29.00;;;;;;5070230;28;20412;-68
2022/02/11 11:24:10;;;;;;;9.43;2.03;;;24.80;29.50;;;;;;5069728;28;20435;-68
2022/02/11 11:26:38;;;;;;;13.35;2.30;;;25.20;28.00;;;;;;5070798;28;20439;-68
2022/02/11 11:29:09;;;;;;;13.63;2.53;;;25.00;27.70;;;;;;5069153;28;20415;-70
2022/02/11 11:31:35;;;;;;;12.68;2.30;;;24.70;28.70;;;;;;5070648;28;20410;-69
2022/02/11 11:34:16;;;;;;;11.55;2.25;;;24.30;28.70;;;;;;5068956;28;20509;-69
2022/02/11 11:36:45;;;;;;;12.02;2.25;;;23.40;29.90;;;;;;5069144;28;20412;-69
2022/02/11 11:39:11;;;;;;;11.50;2.38;;;22.40;30.90;;;;;;5051687;28;20430;-70
2022/02/11 11:41:37;;;;;;;12.50;2.40;;;21.50;32.90;;;;;;5069323;28;20776;-70
2022/02/11 11:44:22;;;;;;;12.40;2.42;;;20.80;34.60;;;;;;5068132;28;20408;-67
2022/02/11 11:46:51;;;;;;;15.48;2.40;;;19.90;35.80;;;;;;5070180;28;20404;-69
2022/02/11 11:49:20;;;;;;;15.65;2.10;;;19.20;38.00;;;;;;5069796;28;20190;-70
2022/02/11 11:51:46;;;;;;;12.75;2.78;;;18.00;39.50;;;;;;5070322;28;20399;-69
2022/02/11 11:54:17;;;;;;;17.00;2.90;;;17.90;40.90;;;;;;5067022;28;20571;-69
2022/02/11 11:57:04;;;;;;;18.60;2.85;;;17.60;42.10;;;;;;5050497;28;20892;-71
2022/02/11 11:59:36;;;;;;;16.50;4.00;;;17.20;43.10;;;;;;5069529;28;20438;-70
2022/02/11 12:02:12;;;;;;;17.85;2.85;;;17.00;44.40;;;;;;5068956;28;20387;-68
2022/02/11 12:04:41;;;;;;;16.43;2.80;;;16.90;44.60;;;;;;5069956;28;20797;-69
2022/02/11 12:07:13;;;;;;;15.88;2.70;;;17.00;44.70;;;;;;5069401;28;20435;-68
2022/02/11 12:09:41;;;;;;;19.02;2.97;;;17.00;44.70;;;;;;5066024;28;20660;-69
2022/02/11 12:12:09;;;;;;;17.23;2.53;;;16.80;44.80;;;;;;5069245;28;20887;-68
2022/02/11 12:14:41;;;;;;;15.35;2.65;;;16.70;46.10;;;;;;5069133;28;22348;-68
2022/02/11 12:17:09;;;;;;;14.13;2.33;;;16.50;45.70;;;;;;5069377;28;20186;-68
2022/02/11 12:19:36;;;;;;;13.27;2.10;;;16.00;46.80;;;;;;5069539;28;20178;-70
2022/02/11 12:22:05;;;;;;;9.85;2.50;;;15.60;47.80;;;;;;5069013;28;20285;-68
2022/02/11 12:27:21;;;;;;;10.65;1.90;;;15.10;49.10;;;;;;5069493;28;20610;-68
2022/02/11 12:29:56;;;;;;;13.13;2.00;;;15.20;49.40;;;;;;5051882;28;20187;-68
2022/02/11 12:32:24;;;;;;;;;;;15.30;49.10;;;;;;5069219;28;20112;-69
2022/02/11 12:34:51;;;;;;;;;;;15.30;49.30;;;;;;5069108;28;19912;-69
2022/02/11 12:37:18;;;;;;;;;;;15.50;49.40;;;;;;5069309;28;19908;-67
2022/02/11 12:39:44;;;;;;;9.93;1.70;;;15.50;49.70;;;;;;5068257;28;20200;-69
2022/02/11 12:42:15;;;;;;;16.95;2.75;;;15.90;50.10;;;;;;5067015;28;20823;-69
2022/02/11 12:44:41;;;;;;;17.30;2.30;;;17.60;45.50;;;;;;5068921;28;20756;-68
2022/02/11 12:47:07;;;;;;;15.35;2.58;;;18.80;42.50;;;;;;5068963;28;20279;-68
2022/02/11 12:49:33;;;;;;;10.80;2.50;;;18.50;44.40;;;;;;5069040;28;20510;-69
2022/02/11 12:52:00;;;;;;;11.43;2.47;;;19.70;41.50;;;;;;5068495;28;20422;-68
2022/02/11 12:54:25;;;;;;;;;;;20.40;39.30;;;;;;5050747;28;20044;-69
2022/02/11 12:57:04;;;;;;;;;;;19.80;41.50;;;;;;5052427;28;19978;-68
2022/02/11 12:59:30;;;;;;;;;;;19.40;43.40;;;;;;5051729;28;19927;-68
2022/02/11 13:01:56;;;;;;;;;;;19.20;44.00;;;;;;5070525;28;19912;-68
2022/02/11 13:04:22;;;;;;;;;;;19.00;44.80;;;;;;5051745;28;19981;-69
2022/02/11 13:06:47;;;;;;;;;;;18.80;45.40;;;;;;5070357;28;19955;-69
2022/02/11 13:09:13;;;;;;;;;;;18.70;46.00;;;;;;5067579;28;20353;-68
2022/02/11 13:11:43;;;;;;;;;;;18.70;46.60;;;;;;5067917;28;20397;-67
2022/02/11 13:14:09;;;;;;;;;;;18.70;47.10;;;;;;5069623;28;19916;-68
2022/02/11 13:16:35;;;;;;;;;;;18.60;47.00;;;;;;5052370;28;19912;-69
2022/02/11 13:19:15;;;;;;;;;;;18.60;47.00;;;;;;5069288;28;19912;-68
2022/02/11 13:21:41;;;;;;;;;;;18.50;47.90;;;;;;5069598;28;19909;-69
2022/02/11 13:24:07;;;;;;;;;;;18.60;48.60;;;;;;5069399;28;20340;-69
2022/02/11 13:26:33;;;;;;;;;;;18.60;49.00;;;;;;5069454;28;19916;-69
2022/02/11 13:28:59;;;;;;;;;;;18.50;48.90;;;;;;5049394;28;19962;-68
2022/02/11 13:31:24;;;;;;;;;;;18.20;49.00;;;;;;5051035;28;19912;-68
2022/02/11 13:34:04;;;;;;;8.40;1.60;;;18.00;48.80;;;;;;5068600;28;20184;-70
2022/02/11 13:36:30;;;;;;;13.48;2.13;;;17.80;48.40;;;;;;5068267;28;20441;-70
2022/02/11 13:39:01;;;;;;;13.48;2.10;;;18.70;41.90;;;;;;5048887;28;20424;-69
2022/02/11 13:41:44;;;;;;;16.63;2.50;;;19.10;41.50;;;;;;5067996;28;20410;-68
2022/02/11 13:44:11;;;;;;;15.00;2.10;;;19.10;41.40;;;;;;5066947;28;20411;-69
2022/02/11 13:46:48;;;;;;;12.25;2.20;;;19.10;42.20;;;;;;5050447;28;20494;-69
2022/02/11 13:49:13;;;;;;;10.18;2.33;;;19.00;41.90;;;;;;5067660;28;21007;-69
2022/02/11 13:51:41;;;;;;;14.07;2.13;;;18.30;43.40;;;;;;5069184;28;20269;-69
2022/02/11 13:54:14;;;;;;;8.07;1.83;;;17.70;44.90;;;;;;5066575;28;21271;-69
2022/02/11 13:56:46;;;;;;;11.45;1.80;;;17.10;46.20;;;;;;5069592;28;20182;-68
2022/02/11 13:59:15;;;;;;;14.32;1.70;;;16.80;47.30;;;;;;5068183;28;20184;-69
2022/02/11 14:01:43;;;;;;;14.65;2.47;;;16.50;47.90;;;;;;5067985;28;20457;-68
2022/02/11 14:04:23;;;;;;;9.90;1.70;;;16.90;47.80;;;;;;5065729;28;20190;-68
2022/02/11 14:06:53;;;;;;;14.23;1.52;;;16.40;48.50;;;;;;5068099;28;20195;-67
2022/02/11 14:09:39;;;;;;;8.48;1.35;;;16.00;49.20;;;;;;5067435;28;20929;-68
2022/02/11 14:12:06;;;;;;;6.32;1.38;;;15.80;48.90;;;;;;5067475;28;20209;-69
2022/02/11 14:14:33;;;;;;;6.78;1.45;;;15.70;48.70;;;;;;5067961;28;20179;-69
2022/02/11 14:17:00;;;;;;;7.35;1.73;;;15.60;48.30;;;;;;5068758;28;20638;-68
2022/02/11 14:19:27;;;;;;;7.72;1.80;;;15.50;49.00;;;;;;5067199;28;20244;-70
2022/02/11 14:21:57;;;;;;;8.52;1.63;;;15.30;48.40;;;;;;5051058;28;20650;-69
2022/02/11 14:24:25;;;;;;;7.45;1.38;;;15.20;48.50;;;;;;5066116;28;20191;-70
2022/02/11 14:26:52;;;;;;;7.13;1.35;;;15.10;48.60;;;;;;5068848;28;20213;-68
2022/02/11 14:29:18;;;;;;;9.07;1.70;;;15.10;48.90;;;;;;5066397;28;20859;-69
2022/02/11 14:31:45;;;;;;;9.90;1.85;;;15.70;47.10;;;;;;5067340;28;20407;-68
2022/02/11 14:34:12;;;;;;;10.02;2.03;;;16.00;46.70;;;;;;5067044;28;20415;-67
2022/02/11 14:36:39;;;;;;;10.80;2.00;;;16.10;46.80;;;;;;5067658;28;20391;-68
2022/02/11 14:39:13;;;;;;;11.85;1.90;;;16.10;46.80;;;;;;5065426;28;20819;-69
2022/02/11 14:41:46;;;;;;;11.65;2.05;;;16.10;47.10;;;;;;5082260;28;20403;-69
2022/02/11 14:44:12;;;;;;;7.97;1.70;;;16.00;46.90;;;;;;5066445;28;20418;-70
2022/02/11 14:46:37;;;;;;;14.40;2.15;;;15.90;45.70;;;;;;5066929;28;20884;-69
2022/02/11 14:49:04;;;;;;;9.93;1.50;;;15.90;45.90;;;;;;5048429;28;20423;-69
2022/02/11 14:51:31;;;;;;;10.27;2.00;;;15.80;46.50;;;;;;5069047;28;20418;-69
2022/02/11 14:53:59;;;;;;;11.52;2.10;;;15.80;47.00;;;;;;5070367;28;20741;-69
2022/02/11 14:56:25;;;;;;;12.60;2.30;;;15.80;47.10;;;;;;5053539;28;20748;-68
2022/02/11 14:58:51;;;;;;;12.93;2.50;;;15.70;47.60;;;;;;5070062;28;20494;-69
2022/02/11 15:01:16;;;;;;;14.63;2.30;;;15.60;47.70;;;;;;5071144;28;20470;-69
2022/02/11 15:03:42;;;;;;;13.32;3.75;;;15.60;47.90;;;;;;5070214;28;20416;-70
2022/02/11 15:06:08;;;;;;;11.20;2.00;;;15.60;48.10;;;;;;5070185;28;20437;-68
2022/02/11 15:08:33;;;;;;;10.23;1.80;;;15.50;47.80;;;;;;5051436;28;20433;-69
2022/02/11 15:11:01;;;;;;;10.55;1.88;;;15.40;48.50;;;;;;5070880;28;20764;-68
2022/02/11 15:13:27;;;;;;;11.35;1.70;;;15.30;48.00;;;;;;5065728;28;20814;-68
2022/02/11 15:15:53;;;;;;;8.98;1.80;;;15.30;47.60;;;;;;5070251;28;20183;-68
2022/02/11 15:18:19;;;;;;;10.38;1.70;;;14.80;48.50;;;;;;5071045;28;20221;-68
2022/02/11 15:20:45;;;;;;;9.32;1.73;;;14.40;49.60;;;;;;5070567;28;20240;-69
2022/02/11 15:23:12;;;;;;;9.88;1.63;;;14.10;50.60;;;;;;5070322;28;20194;-69
2022/02/11 15:25:37;;;;;;;8.90;2.05;;;13.90;51.10;;;;;;5067532;28;20767;-68
2022/02/11 15:28:03;;;;;;;13.85;2.35;;;14.30;51.10;;;;;;5052048;28;20403;-68
2022/02/11 15:30:30;;;;;;;10.90;1.85;;;14.40;50.90;;;;;;5068504;28;20437;-69
2022/02/11 15:32:55;;;;;;;13.00;2.50;;;14.50;51.10;;;;;;5070577;28;20416;-67
2022/02/11 15:35:24;;;;;;;16.65;2.72;;;14.50;51.20;;;;;;5068424;28;20445;-69
2022/02/11 15:37:52;;;;;;;10.55;1.90;;;14.50;51.40;;;;;;5067078;28;20411;-70
2022/02/11 15:40:18;;;;;;;12.32;1.80;;;14.40;51.00;;;;;;5069860;28;20409;-69
2022/02/11 15:42:44;;;;;;;13.53;1.97;;;14.40;51.10;;;;;;5069178;28;20399;-68
2022/02/11 15:45:10;;;;;;;12.13;2.30;;;14.50;51.20;;;;;;5068306;28;20784;-68
2022/02/11 15:47:36;;;;;;;13.93;2.20;;;14.50;50.70;;;;;;5051314;28;20399;-70
2022/02/11 15:50:02;;;;;;;11.88;2.00;;;14.50;50.50;;;;;;5069718;28;20406;-72
2022/02/11 15:52:27;;;;;;;12.20;2.05;;;14.40;50.50;;;;;;5068581;28;20407;-67
2022/02/11 15:54:53;;;;;;;15.07;2.10;;;14.20;50.60;;;;;;5069091;28;20388;-68
2022/02/11 15:57:19;;;;;;;9.80;1.83;;;14.10;50.40;;;;;;5066221;28;20404;-68
2022/02/11 15:59:45;;;;;;;10.93;2.00;;;14.00;50.70;;;;;;5050592;28;20414;-69
2022/02/11 16:02:11;;;;;;;15.95;2.72;;;13.80;50.70;;;;;;5069175;28;20461;-70
2022/02/11 16:04:37;;;;;;;16.57;2.17;;;13.70;51.90;;;;;;5066314;28;20396;-68
2022/02/11 16:07:03;;;;;;;15.48;2.70;;;13.60;53.10;;;;;;5069630;28;20387;-68
2022/02/11 16:09:28;;;;;;;16.35;2.08;;;13.50;53.40;;;;;;5069537;28;20195;-69
2022/02/11 16:11:57;;;;;;;9.75;2.00;;;12.90;54.00;;;;;;5068035;28;20593;-68
2022/02/11 16:14:24;;;;;;;14.43;2.75;;;12.50;55.00;;;;;;5070414;28;20293;-71
2022/02/11 16:16:52;;;;;;;11.25;2.35;;;12.10;55.80;;;;;;5070090;28;20197;-68
2022/02/11 16:19:18;;;;;;;9.23;1.80;;;11.90;56.60;;;;;;5070266;28;21736;-68
2022/02/11 16:21:43;;;;;;;17.10;2.33;;;11.60;57.30;;;;;;5067649;28;20186;-69
2022/02/11 16:24:09;;;;;;;10.93;1.83;;;11.50;58.00;;;;;;5049377;28;20286;-69
2022/02/11 16:26:36;;;;;;;8.20;1.83;;;11.30;58.50;;;;;;5069327;28;20187;-68